Time;durP1;ratioP1;P1;durP2;ratioP2;P2;SDS_P1;SDS_P2;PMS_P1;PMS_P2;Temp;Humidity;BMP_temperature;BMP_pressure;BME280_temperature;BME280_humidity;BME280_pressure;Samples;Min_cycle;Max_cycle;Signal;HPM_P1;HPM_P2
2023/07/12 00:00:40;;;;;;;6.27;4.80;;;23.10;99.90;;;;;;5050556;28;20243;-70
2023/07/12 00:03:06;;;;;;;5.47;3.90;;;23.00;99.90;;;;;;5027494;28;20221;-70
2023/07/12 00:05:32;;;;;;;3.90;3.50;;;23.00;99.90;;;;;;5050419;28;20443;-70
2023/07/12 00:07:57;;;;;;;6.20;3.83;;;22.90;99.90;;;;;;5050415;28;20624;-70
2023/07/12 00:10:31;;;;;;;5.43;3.40;;;22.80;99.90;;;;;;5050434;28;20617;-70
2023/07/12 00:12:56;;;;;;;4.67;3.30;;;22.70;99.90;;;;;;5050150;28;20688;-70
2023/07/12 00:15:25;;;;;;;3.70;2.90;;;22.60;99.90;;;;;;5050003;28;20412;-71
2023/07/12 00:17:52;;;;;;;3.40;2.80;;;22.60;99.90;;;;;;5050257;28;20194;-70
2023/07/12 00:20:30;;;;;;;2.93;2.53;;;22.50;99.90;;;;;;5049353;28;20420;-70
2023/07/12 00:22:57;;;;;;;3.53;2.43;;;22.60;99.90;;;;;;5049991;28;20862;-70
2023/07/12 00:25:26;;;;;;;4.17;2.37;;;22.50;99.90;;;;;;5049566;28;20477;-70
2023/07/12 00:27:52;;;;;;;5.17;2.77;;;22.50;99.90;;;;;;5055165;28;20423;-70
2023/07/12 00:30:33;;;;;;;2.60;2.23;;;22.40;99.90;;;;;;5050069;28;20924;-70
2023/07/12 00:33:03;;;;;;;3.13;2.60;;;22.30;99.90;;;;;;5049722;28;20639;-70
2023/07/12 00:35:31;;;;;;;3.13;2.60;;;22.30;99.90;;;;;;5049944;28;20432;-70
2023/07/12 00:37:59;;;;;;;3.97;2.60;;;22.20;99.90;;;;;;5049919;28;20519;-70
2023/07/12 00:40:55;;;;;;;3.13;2.83;;;22.10;99.90;;;;;;5049125;28;20758;-69
2023/07/12 00:43:25;;;;;;;2.83;2.37;;;22.10;99.90;;;;;;5048931;28;20452;-69
2023/07/12 00:45:53;;;;;;;2.50;2.30;;;22.00;99.90;;;;;;5049640;28;20483;-70
2023/07/12 00:48:19;;;;;;;2.13;1.93;;;22.00;99.90;;;;;;5048468;28;20456;-70
2023/07/12 00:50:47;;;;;;;5.20;2.63;;;22.00;99.90;;;;;;5049607;28;20514;-70
2023/07/12 00:53:25;;;;;;;2.90;2.10;;;21.90;99.90;;;;;;5049334;28;20432;-70
2023/07/12 00:56:03;;;;;;;2.60;2.40;;;21.80;99.90;;;;;;5048813;28;20968;-70
2023/07/12 00:58:44;;;;;;;3.00;2.10;;;21.80;99.90;;;;;;5049928;28;20416;-71
2023/07/12 01:01:13;;;;;;;3.40;2.30;;;21.70;99.90;;;;;;5047605;28;20432;-71
2023/07/12 01:03:40;;;;;;;2.20;1.90;;;21.70;99.90;;;;;;5049263;28;20456;-71
2023/07/12 01:06:10;;;;;;;2.50;1.77;;;21.60;99.90;;;;;;5034349;28;20445;-71
2023/07/12 01:08:41;;;;;;;1.93;1.80;;;21.60;99.90;;;;;;5029860;28;20806;-71
2023/07/12 01:11:08;;;;;;;2.40;2.20;;;21.60;99.90;;;;;;5029767;28;20978;-70
2023/07/12 01:13:35;;;;;;;2.23;1.87;;;21.60;99.90;;;;;;5029407;28;20425;-71
2023/07/12 01:16:02;;;;;;;2.50;1.97;;;21.60;99.90;;;;;;5029717;28;20434;-71
2023/07/12 01:18:29;;;;;;;2.33;1.93;;;21.60;99.90;;;;;;5030147;28;20479;-71
2023/07/12 01:21:15;;;;;;;2.43;1.60;;;21.60;99.90;;;;;;5028742;28;20778;-70
2023/07/12 01:23:42;;;;;;;1.87;1.70;;;21.60;99.90;;;;;;5029271;28;20432;-70
2023/07/12 01:26:16;;;;;;;2.27;2.00;;;21.60;99.90;;;;;;5029307;28;20480;-70
2023/07/12 01:28:42;;;;;;;5.70;2.20;;;21.50;99.90;;;;;;5053821;28;20423;-70
2023/07/12 01:31:08;;;;;;;2.33;1.97;;;21.50;99.90;;;;;;5069395;28;20413;-70
2023/07/12 01:33:34;;;;;;;2.10;1.90;;;21.40;99.90;;;;;;5067356;28;20514;-70
2023/07/12 01:35:59;;;;;;;2.20;1.67;;;21.40;99.90;;;;;;5069231;28;20278;-70
2023/07/12 01:38:25;;;;;;;2.60;1.90;;;21.30;99.90;;;;;;5067798;28;20181;-71
2023/07/12 01:40:51;;;;;;;2.33;1.87;;;21.20;99.90;;;;;;5069070;28;20188;-70
2023/07/12 01:43:17;;;;;;;1.70;1.60;;;21.20;99.90;;;;;;5051938;28;20205;-70
2023/07/12 01:45:42;;;;;;;2.10;1.67;;;21.20;99.90;;;;;;5045071;28;20197;-70
2023/07/12 01:48:08;;;;;;;5.80;2.77;;;21.10;99.90;;;;;;5046291;28;20189;-70
2023/07/12 01:50:34;;;;;;;3.10;2.37;;;21.10;99.90;;;;;;5048693;28;20177;-70
2023/07/12 01:52:59;;;;;;;5.63;2.63;;;21.10;99.90;;;;;;5047987;28;20645;-70
2023/07/12 01:55:25;;;;;;;4.17;2.20;;;21.10;99.90;;;;;;5047333;28;20201;-70
2023/07/12 01:57:51;;;;;;;4.43;2.47;;;21.00;99.90;;;;;;5048350;28;20186;-70
2023/07/12 02:00:17;;;;;;;3.50;1.80;;;21.00;99.90;;;;;;5030042;28;20675;-70
2023/07/12 02:02:42;;;;;;;2.10;1.80;;;20.90;99.90;;;;;;5047775;28;20467;-70
2023/07/12 02:05:08;;;;;;;2.63;2.37;;;20.90;99.90;;;;;;5048083;28;20186;-70
2023/07/12 02:07:34;;;;;;;3.70;2.50;;;20.90;99.90;;;;;;5048164;28;20281;-70
2023/07/12 02:10:12;;;;;;;2.87;2.30;;;20.80;99.90;;;;;;5047074;28;20185;-71
2023/07/12 02:12:39;;;;;;;5.93;3.40;;;20.80;99.90;;;;;;5048076;28;20201;-71
2023/07/12 02:15:05;;;;;;;2.47;2.00;;;20.80;99.90;;;;;;5047982;28;20473;-70
2023/07/12 02:17:30;;;;;;;5.53;2.60;;;20.80;99.90;;;;;;5048350;28;20420;-70
2023/07/12 02:19:56;;;;;;;3.07;2.30;;;20.70;99.90;;;;;;5048200;28;20769;-70
2023/07/12 02:22:22;;;;;;;4.97;2.60;;;20.70;99.90;;;;;;5047671;28;20245;-70
2023/07/12 02:24:47;;;;;;;3.30;2.90;;;20.60;99.90;;;;;;5048051;28;20617;-70
2023/07/12 02:27:13;;;;;;;2.93;2.63;;;20.50;99.90;;;;;;5047809;28;20205;-70
2023/07/12 02:29:39;;;;;;;4.57;2.37;;;20.40;99.90;;;;;;5054439;28;20201;-70
2023/07/12 02:32:05;;;;;;;4.03;2.40;;;20.30;99.90;;;;;;5046227;28;20194;-70
2023/07/12 02:34:30;;;;;;;6.00;2.43;;;20.30;99.90;;;;;;5047969;28;20221;-70
2023/07/12 02:36:56;;;;;;;4.00;2.43;;;20.30;99.90;;;;;;5047941;28;20486;-70
2023/07/12 02:39:22;;;;;;;4.17;2.53;;;20.20;99.90;;;;;;5047940;28;20265;-70
2023/07/12 02:41:47;;;;;;;4.97;2.63;;;20.30;99.90;;;;;;5048039;28;20574;-70
2023/07/12 02:44:13;;;;;;;3.67;2.40;;;20.30;99.90;;;;;;5048545;28;20705;-70
2023/07/12 02:46:39;;;;;;;4.20;3.13;;;20.20;99.90;;;;;;5033829;28;20206;-70
2023/07/12 02:49:04;;;;;;;2.97;2.67;;;20.10;99.90;;;;;;5032497;28;20170;-70
2023/07/12 02:51:30;;;;;;;3.77;3.33;;;20.00;99.90;;;;;;5032494;28;20688;-70
2023/07/12 02:53:56;;;;;;;4.53;2.13;;;20.00;99.90;;;;;;5031992;28;20644;-70
2023/07/12 02:56:21;;;;;;;3.73;2.40;;;19.90;99.90;;;;;;5031004;28;20281;-70
2023/07/12 02:58:47;;;;;;;3.67;2.30;;;20.00;99.90;;;;;;5030688;28;20185;-70
2023/07/12 03:01:13;;;;;;;3.80;2.03;;;20.10;99.90;;;;;;5032094;28;20178;-70
2023/07/12 03:03:38;;;;;;;3.60;2.40;;;20.20;99.90;;;;;;5030321;28;20235;-70
2023/07/12 03:06:09;;;;;;;3.13;2.20;;;20.20;99.90;;;;;;5047174;28;20210;-70
2023/07/12 03:08:35;;;;;;;3.60;2.70;;;20.10;99.90;;;;;;5047131;28;20205;-70
2023/07/12 03:11:03;;;;;;;3.27;1.83;;;20.10;99.90;;;;;;5032089;28;20413;-70
2023/07/12 03:13:29;;;;;;;2.87;2.00;;;20.10;99.90;;;;;;5031513;28;20754;-70
2023/07/12 03:15:54;;;;;;;3.93;2.00;;;20.10;99.90;;;;;;5031551;28;20436;-70
2023/07/12 03:18:20;;;;;;;7.43;2.27;;;20.10;99.90;;;;;;5031870;28;20244;-70
2023/07/12 03:20:46;;;;;;;4.13;2.07;;;20.10;99.90;;;;;;5031804;28;20183;-70
2023/07/12 03:23:11;;;;;;;2.57;2.37;;;20.00;99.90;;;;;;5031227;28;20213;-70
2023/07/12 03:25:37;;;;;;;2.40;2.20;;;20.00;99.90;;;;;;5031259;28;20198;-70
2023/07/12 03:28:03;;;;;;;3.90;2.07;;;19.90;99.90;;;;;;5045402;28;20272;-70
2023/07/12 03:30:29;;;;;;;2.87;1.77;;;19.90;99.90;;;;;;5070173;28;20251;-70
2023/07/12 03:32:54;;;;;;;2.60;2.30;;;19.80;99.90;;;;;;5070982;28;20187;-70
2023/07/12 03:35:20;;;;;;;3.10;2.00;;;19.80;99.90;;;;;;5071113;28;20189;-70
2023/07/12 03:37:45;;;;;;;4.03;2.50;;;19.70;99.90;;;;;;5070144;28;20181;-70
2023/07/12 03:40:11;;;;;;;3.83;2.50;;;19.60;99.90;;;;;;5071277;28;20177;-70
2023/07/12 03:42:37;;;;;;;3.17;2.30;;;19.60;99.90;;;;;;5059941;28;20243;-70
2023/07/12 03:45:03;;;;;;;4.20;2.67;;;19.60;99.90;;;;;;5051127;28;20606;-70
2023/07/12 03:47:29;;;;;;;3.90;2.43;;;19.50;99.90;;;;;;5051188;28;20255;-70
2023/07/12 03:49:55;;;;;;;5.13;2.23;;;19.40;99.90;;;;;;5051174;28;20416;-70
2023/07/12 03:52:21;;;;;;;3.90;2.30;;;19.30;99.90;;;;;;5050744;28;20289;-71
2023/07/12 03:54:47;;;;;;;3.50;2.30;;;19.40;99.90;;;;;;5050268;28;20507;-70
2023/07/12 03:57:12;;;;;;;5.10;2.20;;;19.40;99.90;;;;;;5049352;28;20198;-70
2023/07/12 03:59:38;;;;;;;2.70;2.13;;;19.50;99.90;;;;;;5050999;28;20178;-71
2023/07/12 04:02:04;;;;;;;2.33;1.87;;;19.40;99.90;;;;;;5050606;28;20683;-70
2023/07/12 04:04:30;;;;;;;5.80;2.33;;;19.40;99.90;;;;;;5050784;28;20181;-70
2023/07/12 04:06:56;;;;;;;2.17;1.97;;;19.30;99.90;;;;;;5050655;28;20420;-70
2023/07/12 04:09:21;;;;;;;5.17;1.80;;;19.20;99.90;;;;;;5050882;28;20585;-70
2023/07/12 04:11:47;;;;;;;6.00;2.13;;;19.20;99.90;;;;;;5050643;28;20417;-70
2023/07/12 04:14:13;;;;;;;4.03;2.10;;;19.10;99.90;;;;;;5050347;28;20268;-70
2023/07/12 04:16:38;;;;;;;4.50;2.57;;;19.20;99.90;;;;;;5050210;28;20197;-70
2023/07/12 04:19:04;;;;;;;3.93;2.00;;;19.10;99.90;;;;;;5050673;28;20190;-70
2023/07/12 04:21:30;;;;;;;5.33;2.10;;;19.10;99.90;;;;;;5049270;28;20269;-70
2023/07/12 04:23:55;;;;;;;2.60;2.40;;;19.20;99.90;;;;;;5050105;28;20614;-70
2023/07/12 04:26:21;;;;;;;2.17;1.90;;;19.20;99.90;;;;;;5050091;28;20208;-70
2023/07/12 04:28:50;;;;;;;6.07;2.10;;;19.20;99.90;;;;;;5063315;28;20230;-70
2023/07/12 04:31:19;;;;;;;5.23;2.23;;;19.20;99.90;;;;;;5070374;28;20419;-70
2023/07/12 04:33:46;;;;;;;2.87;2.10;;;19.10;99.90;;;;;;5070078;28;20419;-70
2023/07/12 04:36:14;;;;;;;2.53;1.93;;;19.20;99.90;;;;;;5069957;28;20434;-70
2023/07/12 04:38:39;;;;;;;3.37;2.00;;;19.10;99.90;;;;;;5070036;28;20424;-70
2023/07/12 04:41:05;;;;;;;2.87;1.87;;;19.10;99.90;;;;;;5070265;28;20481;-69
2023/07/12 04:43:31;;;;;;;2.80;2.00;;;19.10;99.90;;;;;;5051304;28;20217;-69
2023/07/12 04:45:58;;;;;;;3.83;2.23;;;19.10;99.90;;;;;;5049963;28;20202;-69
2023/07/12 04:48:24;;;;;;;2.47;1.87;;;19.10;99.90;;;;;;5050017;28;20519;-69
2023/07/12 04:50:51;;;;;;;7.13;2.23;;;19.10;99.90;;;;;;5050202;28;20495;-69
2023/07/12 04:53:17;;;;;;;3.87;2.20;;;19.10;99.90;;;;;;5046482;28;20435;-69
2023/07/12 04:55:43;;;;;;;3.23;2.00;;;19.10;99.90;;;;;;5046667;28;20941;-71
2023/07/12 04:58:08;;;;;;;3.57;1.83;;;19.10;99.90;;;;;;5045903;28;20484;-70
2023/07/12 05:00:34;;;;;;;2.73;2.00;;;19.10;99.90;;;;;;5048965;28;20181;-70
2023/07/12 05:03:00;;;;;;;2.70;1.80;;;19.00;99.90;;;;;;5044534;28;20202;-70
2023/07/12 05:05:26;;;;;;;5.90;1.80;;;19.00;99.90;;;;;;5049319;28;20248;-70
2023/07/12 05:07:51;;;;;;;2.60;1.90;;;19.00;99.90;;;;;;5048922;28;20197;-69
2023/07/12 05:10:17;;;;;;;4.67;1.97;;;19.00;99.90;;;;;;5049619;28;20769;-69
2023/07/12 05:12:43;;;;;;;2.03;1.60;;;19.00;99.90;;;;;;5047951;28;20186;-71
2023/07/12 05:15:10;;;;;;;2.40;1.40;;;19.00;99.90;;;;;;5049293;28;20186;-71
2023/07/12 05:17:37;;;;;;;2.93;2.10;;;19.00;99.90;;;;;;5049411;28;20174;-71
2023/07/12 05:20:04;;;;;;;1.73;1.60;;;19.10;99.90;;;;;;5049743;28;20431;-71
2023/07/12 05:22:30;;;;;;;2.30;1.50;;;19.10;99.90;;;;;;5047734;28;20456;-70
2023/07/12 05:24:58;;;;;;;3.53;1.73;;;19.20;99.90;;;;;;5049160;28;20408;-70
2023/07/12 05:27:23;;;;;;;3.70;1.47;;;19.20;99.90;;;;;;5050560;28;20256;-71
2023/07/12 05:29:49;;;;;;;2.10;1.47;;;19.20;99.90;;;;;;5069349;28;20447;-70
2023/07/12 05:32:15;;;;;;;2.10;1.43;;;19.20;99.90;;;;;;5068832;28;20422;-70
2023/07/12 05:34:41;;;;;;;1.53;1.10;;;19.20;99.90;;;;;;5067796;28;20189;-70
2023/07/12 05:37:10;;;;;;;2.03;1.40;;;19.10;99.90;;;;;;5069102;28;20189;-70
2023/07/12 05:39:36;;;;;;;2.43;1.30;;;19.00;99.90;;;;;;5069320;28;20528;-71
2023/07/12 05:42:03;;;;;;;1.77;1.30;;;19.10;99.90;;;;;;5062604;28;20557;-68
2023/07/12 05:44:29;;;;;;;1.90;1.37;;;19.10;99.90;;;;;;5049912;28;20536;-69
2023/07/12 05:46:54;;;;;;;1.53;1.10;;;19.10;99.90;;;;;;5048757;28;20420;-71
2023/07/12 05:49:20;;;;;;;2.27;1.10;;;19.00;99.90;;;;;;5049185;28;20834;-71
2023/07/12 05:51:46;;;;;;;1.73;1.07;;;18.90;99.90;;;;;;5049229;28;20224;-69
2023/07/12 05:54:12;;;;;;;1.90;1.40;;;19.00;99.90;;;;;;5048643;28;20289;-70
2023/07/12 05:56:38;;;;;;;1.43;1.10;;;19.00;99.90;;;;;;5046438;28;20519;-70
2023/07/12 05:59:04;;;;;;;2.43;1.10;;;19.00;99.90;;;;;;5049102;28;20669;-70
2023/07/12 06:01:30;;;;;;;2.07;1.40;;;18.70;99.90;;;;;;5048874;28;20416;-70
2023/07/12 06:03:56;;;;;;;1.23;1.13;;;18.80;99.90;;;;;;5048639;28;20416;-70
2023/07/12 06:06:22;;;;;;;1.03;0.93;;;18.70;99.90;;;;;;5048284;28;20428;-69
2023/07/12 06:08:48;;;;;;;2.07;1.17;;;18.80;99.90;;;;;;5048539;28;20447;-69
2023/07/12 06:11:13;;;;;;;1.20;1.10;;;18.70;99.90;;;;;;5048531;28;20265;-69
2023/07/12 06:13:39;;;;;;;1.90;1.00;;;18.80;99.90;;;;;;5048243;28;20193;-70
2023/07/12 06:16:08;;;;;;;1.70;1.00;;;18.70;99.90;;;;;;5048630;28;20197;-69
2023/07/12 06:18:33;;;;;;;2.23;1.10;;;18.80;99.90;;;;;;5045402;28;20643;-71
2023/07/12 06:21:02;;;;;;;1.97;1.60;;;18.70;99.90;;;;;;5049579;28;20481;-71
2023/07/12 06:23:29;;;;;;;2.10;1.30;;;18.70;99.90;;;;;;5047518;28;20197;-71
2023/07/12 06:25:58;;;;;;;3.87;1.37;;;18.70;99.90;;;;;;5046142;28;20451;-71
2023/07/12 06:28:24;;;;;;;2.50;1.37;;;18.70;99.90;;;;;;5049321;28;20448;-69
2023/07/12 06:30:50;;;;;;;1.40;1.20;;;18.50;99.90;;;;;;5051371;28;20482;-70
2023/07/12 06:33:16;;;;;;;1.83;1.33;;;18.50;99.90;;;;;;5043217;28;20429;-70
2023/07/12 06:35:42;;;;;;;1.87;1.47;;;18.50;99.90;;;;;;5046727;28;20447;-70
2023/07/12 06:38:08;;;;;;;1.70;1.33;;;18.50;99.90;;;;;;5047809;28;20973;-70
2023/07/12 06:40:33;;;;;;;2.50;1.80;;;18.50;99.90;;;;;;5044574;28;20527;-70
2023/07/12 06:42:59;;;;;;;2.40;1.50;;;18.50;99.90;;;;;;5044459;28;20296;-70
2023/07/12 06:45:25;;;;;;;2.40;1.50;;;18.50;99.90;;;;;;5046403;28;20178;-70
2023/07/12 06:47:51;;;;;;;1.50;1.17;;;18.60;99.90;;;;;;5047609;28;20551;-70
2023/07/12 06:50:17;;;;;;;2.10;1.57;;;18.70;99.90;;;;;;5047802;28;20231;-70
2023/07/12 06:52:43;;;;;;;3.23;1.73;;;18.70;99.90;;;;;;5047134;28;20189;-70
2023/07/12 06:55:09;;;;;;;4.33;2.17;;;18.80;99.90;;;;;;5047294;28;20415;-70
2023/07/12 06:57:35;;;;;;;4.30;2.40;;;18.90;99.90;;;;;;5030102;28;20185;-71
2023/07/12 07:00:07;;;;;;;6.73;2.43;;;18.80;99.90;;;;;;5048293;28;20420;-70
2023/07/12 07:02:33;;;;;;;4.30;3.20;;;19.00;99.90;;;;;;5045976;28;20467;-70
2023/07/12 07:04:59;;;;;;;4.80;3.27;;;19.20;99.90;;;;;;5047866;28;20411;-70
2023/07/12 07:07:25;;;;;;;4.37;3.17;;;19.20;99.90;;;;;;5046497;28;20444;-70
2023/07/12 07:09:51;;;;;;;7.50;4.00;;;19.20;99.90;;;;;;5048106;28;20428;-71
2023/07/12 07:12:16;;;;;;;4.50;3.67;;;19.30;99.90;;;;;;5047452;28;20181;-70
2023/07/12 07:14:43;;;;;;;3.53;3.23;;;19.40;99.90;;;;;;5047746;28;20232;-70
2023/07/12 07:17:10;;;;;;;4.20;3.80;;;19.50;99.90;;;;;;5047724;28;20428;-70
2023/07/12 07:19:37;;;;;;;8.47;3.97;;;19.70;99.90;;;;;;5048143;28;20720;-70
2023/07/12 07:22:03;;;;;;;4.80;3.60;;;19.70;99.90;;;;;;5047250;28;20539;-71
2023/07/12 07:24:28;;;;;;;8.23;4.00;;;19.60;99.90;;;;;;5047739;28;20416;-70
2023/07/12 07:26:54;;;;;;;9.30;3.70;;;19.70;99.90;;;;;;5047531;28;20442;-70
2023/07/12 07:29:20;;;;;;;6.17;3.33;;;19.70;99.90;;;;;;5065247;28;20181;-70
2023/07/12 07:31:46;;;;;;;5.77;3.27;;;19.70;99.90;;;;;;5052094;28;20228;-71
2023/07/12 07:34:12;;;;;;;5.57;2.97;;;19.80;99.90;;;;;;5049505;28;20420;-71
2023/07/12 07:36:37;;;;;;;5.37;3.80;;;19.90;99.90;;;;;;5051117;28;20186;-70
2023/07/12 07:39:04;;;;;;;4.50;3.40;;;20.00;99.90;;;;;;5051470;28;20484;-71
2023/07/12 07:41:30;;;;;;;5.13;3.50;;;20.10;99.90;;;;;;5051112;28;20190;-71
2023/07/12 07:43:56;;;;;;;5.00;3.63;;;20.20;99.90;;;;;;5050696;28;20408;-71
2023/07/12 07:46:22;;;;;;;4.57;3.90;;;20.20;99.90;;;;;;5050831;28;20198;-71
2023/07/12 07:48:48;;;;;;;3.53;3.07;;;20.20;99.90;;;;;;5051189;28;20188;-70
2023/07/12 07:51:15;;;;;;;7.80;3.63;;;20.10;99.90;;;;;;5051384;28;20416;-73
2023/07/12 07:53:40;;;;;;;5.90;2.80;;;20.10;99.90;;;;;;5049566;28;20823;-71
2023/07/12 07:56:07;;;;;;;3.57;2.53;;;20.00;99.90;;;;;;5050875;28;20440;-71
2023/07/12 07:58:33;;;;;;;3.67;2.50;;;20.10;99.90;;;;;;5050881;28;20239;-71
2023/07/12 08:00:59;;;;;;;4.00;2.40;;;20.00;99.90;;;;;;5051163;28;20917;-71
2023/07/12 08:03:24;;;;;;;4.93;2.70;;;20.00;99.90;;;;;;5050279;28;21023;-71
2023/07/12 08:05:50;;;;;;;5.07;2.57;;;20.10;99.90;;;;;;5050629;28;20194;-71
2023/07/12 08:08:16;;;;;;;3.80;3.00;;;20.20;99.90;;;;;;5050637;28;20223;-71
2023/07/12 08:10:42;;;;;;;3.53;2.00;;;20.40;99.90;;;;;;5051003;28;20990;-71
2023/07/12 08:13:08;;;;;;;4.23;2.03;;;20.40;99.90;;;;;;5050408;28;20204;-71
2023/07/12 08:15:34;;;;;;;5.17;2.30;;;20.40;99.90;;;;;;5050324;28;20205;-71
2023/07/12 08:18:01;;;;;;;4.20;2.07;;;20.40;99.90;;;;;;5050722;28;20607;-71
2023/07/12 08:20:27;;;;;;;3.30;2.10;;;20.20;99.90;;;;;;5049315;28;20420;-71
2023/07/12 08:22:53;;;;;;;3.50;2.30;;;20.30;99.90;;;;;;5050005;28;20482;-71
2023/07/12 08:25:21;;;;;;;2.40;1.80;;;20.40;99.90;;;;;;5050507;28;21296;-70
2023/07/12 08:27:46;;;;;;;3.50;2.00;;;20.50;99.90;;;;;;5050642;28;20563;-72
2023/07/12 08:30:13;;;;;;;2.43;1.93;;;20.50;99.90;;;;;;5050601;28;20495;-72
2023/07/12 08:32:39;;;;;;;3.07;1.97;;;20.50;99.90;;;;;;5050078;28;20178;-72
2023/07/12 08:35:06;;;;;;;4.10;2.13;;;20.60;99.90;;;;;;5050295;28;20465;-70
2023/07/12 08:37:32;;;;;;;3.33;2.00;;;20.50;99.90;;;;;;5050114;28;20419;-71
2023/07/12 08:39:58;;;;;;;4.97;2.30;;;20.60;99.90;;;;;;5050429;28;20420;-71
2023/07/12 08:42:27;;;;;;;3.47;2.10;;;20.70;99.90;;;;;;5048781;28;20831;-71
2023/07/12 08:44:56;;;;;;;3.33;2.20;;;20.60;99.90;;;;;;5049906;28;20178;-71
2023/07/12 08:47:35;;;;;;;2.40;2.20;;;20.70;99.90;;;;;;5050036;28;20428;-71
2023/07/12 08:50:01;;;;;;;3.37;2.37;;;20.80;99.90;;;;;;5050227;28;20414;-71
2023/07/12 08:52:33;;;;;;;3.10;2.10;;;20.90;99.90;;;;;;5048311;28;20409;-71
2023/07/12 08:55:01;;;;;;;6.00;2.97;;;21.00;99.90;;;;;;5049821;28;20181;-71
2023/07/12 08:57:29;;;;;;;4.67;2.37;;;21.10;99.90;;;;;;5048886;28;20428;-71
2023/07/12 09:00:19;;;;;;;3.00;2.10;;;21.10;99.90;;;;;;5048743;28;20932;-71
2023/07/12 09:02:44;;;;;;;2.93;2.20;;;21.10;99.90;;;;;;5049394;28;20973;-71
2023/07/12 09:05:13;;;;;;;3.03;1.97;;;21.20;99.90;;;;;;5049368;28;20404;-71
2023/07/12 09:07:47;;;;;;;3.60;2.60;;;21.20;99.90;;;;;;5049502;28;20196;-71
2023/07/12 09:10:25;;;;;;;4.13;3.00;;;21.10;99.90;;;;;;5048536;28;20773;-71
2023/07/12 09:12:51;;;;;;;3.17;2.93;;;21.20;99.90;;;;;;5049263;28;20482;-71
2023/07/12 09:15:17;;;;;;;4.70;2.73;;;21.40;99.90;;;;;;5049428;28;20807;-71
2023/07/12 09:17:44;;;;;;;3.33;2.80;;;21.60;99.90;;;;;;5048006;28;20435;-71
2023/07/12 09:20:24;;;;;;;4.67;3.23;;;21.60;99.90;;;;;;5049569;28;20216;-71
2023/07/12 09:22:50;;;;;;;4.70;2.77;;;21.70;99.90;;;;;;5048714;28;20460;-72
2023/07/12 09:25:25;;;;;;;3.23;2.20;;;21.70;99.90;;;;;;5049116;28;20417;-71
2023/07/12 09:27:51;;;;;;;5.23;2.50;;;21.70;99.90;;;;;;5049234;28;20421;-71
2023/07/12 09:30:22;;;;;;;3.97;1.97;;;21.70;99.90;;;;;;5049525;28;20414;-71
2023/07/12 09:32:49;;;;;;;3.10;2.20;;;21.60;99.90;;;;;;5048864;28;20503;-71
2023/07/12 09:35:24;;;;;;;4.37;2.37;;;21.60;99.90;;;;;;5048944;28;20913;-71
2023/07/12 09:38:01;;;;;;;2.17;1.90;;;21.50;99.90;;;;;;5049218;28;20427;-71
2023/07/12 09:40:37;;;;;;;3.83;2.03;;;21.50;99.90;;;;;;5049298;28;20486;-71
2023/07/12 09:43:04;;;;;;;2.57;2.30;;;21.50;99.90;;;;;;5048451;28;20889;-71
2023/07/12 09:45:36;;;;;;;6.50;2.43;;;21.50;99.90;;;;;;5048798;28;20946;-71
2023/07/12 09:48:09;;;;;;;3.80;2.53;;;21.60;99.90;;;;;;5048930;28;20769;-71
2023/07/12 09:50:49;;;;;;;3.30;2.57;;;21.50;99.90;;;;;;5049030;28;20451;-71
2023/07/12 09:53:56;;;;;;;4.60;2.53;;;21.60;99.90;;;;;;5048495;28;20416;-71
2023/07/12 09:56:37;;;;;;;4.43;3.10;;;21.50;99.90;;;;;;5034068;28;20444;-71
2023/07/12 09:59:22;;;;;;;4.73;3.17;;;21.60;99.90;;;;;;5048772;28;20858;-71
2023/07/12 10:01:59;;;;;;;4.93;2.50;;;21.70;99.90;;;;;;5048866;28;20404;-71
2023/07/12 10:04:32;;;;;;;3.40;3.03;;;21.80;99.90;;;;;;5048611;28;20466;-71
2023/07/12 10:06:57;;;;;;;5.20;3.03;;;21.80;99.90;;;;;;5048330;28;20933;-71
2023/07/12 10:09:30;;;;;;;6.97;3.10;;;21.90;99.90;;;;;;5047417;28;20416;-71
2023/07/12 10:12:11;;;;;;;5.03;2.73;;;21.80;99.90;;;;;;5048534;28;20178;-71
2023/07/12 10:14:39;;;;;;;4.80;2.40;;;21.60;99.90;;;;;;5045610;28;20790;-71
2023/07/12 10:17:12;;;;;;;3.13;2.50;;;21.60;99.90;;;;;;5047964;28;20437;-71
2023/07/12 10:19:41;;;;;;;5.00;2.47;;;21.60;99.90;;;;;;5047940;28;20419;-71
2023/07/12 10:22:16;;;;;;;3.73;2.90;;;21.70;99.90;;;;;;5047804;28;20456;-71
2023/07/12 10:24:45;;;;;;;4.30;2.70;;;21.70;99.90;;;;;;5047747;28;20815;-71
2023/07/12 10:27:24;;;;;;;3.47;2.80;;;21.70;99.90;;;;;;5048311;28;20416;-71
2023/07/12 10:30:09;;;;;;;5.50;3.50;;;21.60;99.90;;;;;;5048287;28;20412;-71
2023/07/12 10:33:01;;;;;;;6.73;3.07;;;21.60;99.90;;;;;;5045800;28;20416;-71
2023/07/12 10:35:57;;;;;;;5.53;2.43;;;21.40;99.90;;;;;;5043743;28;20440;-71
2023/07/12 10:38:23;;;;;;;4.47;2.73;;;21.30;99.90;;;;;;5039703;28;20436;-71
2023/07/12 10:41:13;;;;;;;3.53;2.50;;;21.30;99.90;;;;;;5047138;28;20968;-71
2023/07/12 10:43:45;;;;;;;2.30;2.10;;;21.40;99.90;;;;;;5046256;28;20259;-72
2023/07/12 10:46:17;;;;;;;2.97;2.00;;;21.40;99.90;;;;;;5047534;28;20448;-71
2023/07/12 10:48:49;;;;;;;5.63;2.50;;;21.40;99.90;;;;;;5048038;28;20917;-71
2023/07/12 10:51:28;;;;;;;6.97;2.40;;;21.50;99.90;;;;;;5048040;28;20498;-71
2023/07/12 10:53:55;;;;;;;5.50;2.60;;;21.60;99.90;;;;;;5047392;28;20428;-71
2023/07/12 10:56:52;;;;;;;4.00;2.73;;;21.60;99.90;;;;;;5047014;28;20444;-71
2023/07/12 10:59:32;;;;;;;3.00;2.50;;;21.50;99.90;;;;;;5047389;28;20784;-71
2023/07/12 11:02:04;;;;;;;3.53;2.33;;;21.50;99.90;;;;;;5043926;28;20531;-71
2023/07/12 11:04:29;;;;;;;4.23;2.27;;;21.60;99.90;;;;;;5047974;28;20405;-71
2023/07/12 11:07:04;;;;;;;3.57;2.47;;;21.60;99.90;;;;;;5051715;28;20428;-71
2023/07/12 11:09:47;;;;;;;7.80;2.60;;;21.60;99.90;;;;;;5052261;28;20323;-71
2023/07/12 11:12:34;;;;;;;5.30;2.20;;;21.70;99.90;;;;;;5049731;28;20419;-71
2023/07/12 11:15:12;;;;;;;6.63;2.60;;;22.00;99.90;;;;;;5048390;28;20997;-71
2023/07/12 11:18:06;;;;;;;3.57;1.97;;;22.30;99.90;;;;;;5051773;28;20408;-71
2023/07/12 11:20:54;;;;;;;4.47;2.30;;;22.50;99.90;;;;;;5044019;28;20984;-71
2023/07/12 11:23:30;;;;;;;2.47;1.60;;;22.70;99.90;;;;;;5050848;28;20460;-70
2023/07/12 11:26:02;;;;;;;4.23;2.43;;;22.80;99.90;;;;;;5051443;28;20432;-71
2023/07/12 11:28:48;;;;;;;2.97;1.77;;;22.90;99.90;;;;;;5058166;28;20420;-71
2023/07/12 11:31:26;;;;;;;3.17;1.60;;;23.00;99.90;;;;;;5050140;28;20454;-71
2023/07/12 11:34:17;;;;;;;3.13;1.80;;;23.10;99.90;;;;;;5050654;28;20428;-71
2023/07/12 11:37:07;;;;;;;3.83;2.47;;;23.20;99.90;;;;;;5050904;28;20448;-71
2023/07/12 11:39:33;;;;;;;3.00;1.60;;;23.30;99.90;;;;;;5049713;28;20428;-71
2023/07/12 11:42:08;;;;;;;3.20;1.87;;;23.40;99.90;;;;;;5049891;28;20462;-71
2023/07/12 11:44:34;;;;;;;1.50;1.30;;;23.60;99.90;;;;;;5046689;28;20243;-71
2023/07/12 11:47:02;;;;;;;3.70;1.67;;;23.80;99.90;;;;;;5050549;28;20442;-71
2023/07/12 11:49:30;;;;;;;3.40;1.40;;;23.80;98.90;;;;;;5049908;28;20440;-71
2023/07/12 11:52:04;;;;;;;3.40;1.80;;;23.80;99.50;;;;;;5050883;28;20769;-71
2023/07/12 11:54:36;;;;;;;3.20;1.60;;;23.90;99.30;;;;;;5051036;28;20504;-71
2023/07/12 11:57:03;;;;;;;3.10;2.07;;;23.90;98.30;;;;;;5050533;28;20493;-71
2023/07/12 11:59:32;;;;;;;5.33;2.13;;;23.90;98.20;;;;;;5050690;28;20415;-71
2023/07/12 12:01:59;;;;;;;3.03;2.20;;;23.90;99.00;;;;;;5050598;28;20404;-71
2023/07/12 12:04:30;;;;;;;4.83;2.30;;;24.00;98.70;;;;;;5050586;28;20412;-71
2023/07/12 12:07:24;;;;;;;3.30;2.40;;;24.10;99.80;;;;;;5050334;28;20444;-71
2023/07/12 12:09:51;;;;;;;2.47;1.90;;;24.10;99.30;;;;;;5049987;28;20917;-71
2023/07/12 12:12:21;;;;;;;3.83;1.47;;;24.20;99.50;;;;;;5049936;28;20836;-71
2023/07/12 12:14:49;;;;;;;4.03;1.90;;;24.30;99.00;;;;;;5050151;28;20808;-71
2023/07/12 12:17:18;;;;;;;2.63;1.63;;;24.40;99.80;;;;;;5049258;28;20855;-71
2023/07/12 12:19:48;;;;;;;4.50;1.60;;;24.20;97.10;;;;;;5050305;28;20593;-71
2023/07/12 12:22:23;;;;;;;4.17;2.10;;;24.20;97.40;;;;;;5049880;28;20456;-71
2023/07/12 12:24:54;;;;;;;2.53;1.50;;;24.10;97.30;;;;;;5049993;28;20416;-71
2023/07/12 12:27:22;;;;;;;2.37;1.80;;;24.20;98.30;;;;;;5050950;28;20510;-71
2023/07/12 12:29:51;;;;;;;2.67;1.67;;;24.20;98.60;;;;;;5051122;28;20448;-71
2023/07/12 12:32:19;;;;;;;3.27;1.70;;;24.20;96.90;;;;;;5049706;28;20431;-71
2023/07/12 12:34:51;;;;;;;1.67;1.30;;;24.20;96.20;;;;;;5049822;28;20700;-71
2023/07/12 12:37:28;;;;;;;3.83;1.90;;;24.10;96.10;;;;;;5049895;28;20731;-71
2023/07/12 12:40:07;;;;;;;4.13;1.57;;;23.90;96.30;;;;;;5045742;28;20424;-71
2023/07/12 12:42:34;;;;;;;3.17;1.50;;;23.70;96.90;;;;;;5049388;28;20509;-71
2023/07/12 12:45:00;;;;;;;2.80;1.50;;;23.70;97.00;;;;;;5049448;28;20412;-71
2023/07/12 12:47:30;;;;;;;2.67;1.50;;;23.70;97.40;;;;;;5048506;28;20516;-71
2023/07/12 12:49:57;;;;;;;2.80;1.73;;;23.80;97.30;;;;;;5050199;28;20447;-71
2023/07/12 12:52:27;;;;;;;2.63;1.57;;;23.90;97.60;;;;;;5049208;28;20422;-71
2023/07/12 12:54:56;;;;;;;2.67;1.70;;;24.00;98.50;;;;;;5048278;28;20474;-71
2023/07/12 12:57:22;;;;;;;2.80;1.33;;;24.10;96.60;;;;;;5047053;28;20439;-71